Time;durP1;ratioP1;P1;durP2;ratioP2;P2;SDS_P1;SDS_P2;PMS_P1;PMS_P2;Temp;Humidity;BMP_temperature;BMP_pressure;BME280_temperature;BME280_humidity;BME280_pressure;Samples;Min_cycle;Max_cycle;Signal;HPM_P1;HPM_P2
2021/12/18 00:02:05;;;;;;;8.60;7.77;;;;;;;;;;6239064;28;20532;-64
2021/12/18 00:05:26;;;;;;;7.10;6.50;;;;;;;;;;6241053;28;20315;-66
2021/12/18 00:08:47;;;;;;;5.60;5.10;;;;;;;;;;6244380;28;20232;-64
2021/12/18 00:12:09;;;;;;;5.63;5.13;;;;;;;;;;6232170;28;20633;-65
2021/12/18 00:15:31;;;;;;;5.50;5.00;;;;;;;;;;6227152;28;20224;-65
2021/12/18 00:18:55;;;;;;;4.87;4.30;;;;;;;;;;6240854;28;20277;-66
2021/12/18 00:22:16;;;;;;;5.47;4.63;;;;;;;;;;6214544;28;20237;-64
2021/12/18 00:25:36;;;;;;;5.23;4.77;;;;;;;;;;6237240;28;20646;-65
2021/12/18 00:28:57;;;;;;;5.03;4.20;;;;;;;;;;6236424;28;20316;-64
2021/12/18 00:32:18;;;;;;;4.70;4.30;;;;;;;;;;6230853;28;20232;-65
2021/12/18 00:35:40;;;;;;;4.73;4.23;;;;;;;;;;6242367;28;20225;-66
2021/12/18 00:39:01;;;;;;;4.70;4.30;;;;;;;;;;6241235;28;20240;-65
2021/12/18 00:42:37;;;;;;;4.90;4.40;;;;;;;;;;6236941;28;20224;-64
2021/12/18 00:45:58;;;;;;;3.53;3.23;;;;;;;;;;6199958;28;20235;-66
2021/12/18 00:49:19;;;;;;;4.70;4.30;;;;;;;;;;6240486;28;20244;-64
2021/12/18 00:52:42;;;;;;;5.20;4.53;;;;;;;;;;6239572;28;20228;-64
2021/12/18 00:56:02;;;;;;;5.27;4.77;;;;;;;;;;6230407;28;20233;-65
2021/12/18 00:59:23;;;;;;;5.43;4.93;;;;;;;;;;6239012;28;20236;-65
2021/12/18 01:02:44;;;;;;;5.53;5.03;;;;;;;;;;6239336;28;21508;-63
2021/12/18 01:06:05;;;;;;;5.07;4.57;;;;;;;;;;6245410;28;20605;-64
2021/12/18 01:09:44;;;;;;;5.27;4.77;;;;;;;;;;6236377;28;20321;-65
2021/12/18 01:13:07;;;;;;;4.33;3.73;;;;;;;;;;6242062;28;20232;-65
2021/12/18 01:16:39;;;;;;;4.50;4.20;;;;;;;;;;6245433;28;20228;-64
2021/12/18 01:23:38;;;;;;;4.17;3.77;;;;;;;;;;6239512;28;20252;-64
2021/12/18 01:27:01;;;;;;;3.57;3.27;;;;;;;;;;6240489;28;20228;-64
2021/12/18 01:30:22;;;;;;;4.30;3.90;;;;;;;;;;6240840;28;20220;-64
2021/12/18 01:33:42;;;;;;;3.30;3.00;;;;;;;;;;6240935;28;20260;-65
2021/12/18 01:37:04;;;;;;;4.77;3.53;;;;;;;;;;6239145;28;20260;-66
2021/12/18 01:40:25;;;;;;;6.53;4.83;;;;;;;;;;6238549;28;20245;-65
2021/12/18 01:51:24;;;;;;;8.90;7.37;;;;;;;;;;6217876;28;20504;-65
2021/12/18 01:54:45;;;;;;;8.37;6.70;;;;;;;;;;6235770;28;20630;-66
2021/12/18 01:58:07;;;;;;;11.60;9.03;;;;;;;;;;6240470;28;20683;-63
2021/12/18 02:01:29;;;;;;;10.60;7.43;;;;;;;;;;6239169;28;20228;-65
2021/12/18 02:04:50;;;;;;;9.03;7.50;;;;;;;;;;6236499;28;20228;-65
2021/12/18 02:08:10;;;;;;;8.60;7.17;;;;;;;;;;6236267;28;20232;-65
2021/12/18 02:11:35;;;;;;;7.30;4.23;;;;;;;;;;6241520;28;20264;-65
2021/12/18 02:22:26;;;;;;;6.33;4.70;;;;;;;;;;6201741;28;20229;-65
2021/12/18 02:25:47;;;;;;;4.57;3.90;;;;;;;;;;6239052;28;20247;-66
2021/12/18 02:29:13;;;;;;;5.77;4.33;;;;;;;;;;6237106;28;20228;-63
2021/12/18 02:32:34;;;;;;;5.47;3.53;;;;;;;;;;6235087;28;20228;-65
2021/12/18 02:35:57;;;;;;;3.77;3.13;;;;;;;;;;6223387;28;20311;-65
2021/12/18 02:39:25;;;;;;;4.53;3.87;;;;;;;;;;6238055;28;20240;-66
2021/12/18 02:42:52;;;;;;;7.47;5.43;;;;;;;;;;6224260;28;20227;-66
2021/12/18 02:46:18;;;;;;;5.83;4.53;;;;;;;;;;6211200;28;20236;-65
2021/12/18 02:49:43;;;;;;;5.63;4.67;;;;;;;;;;6237497;28;20225;-65
2021/12/18 02:53:05;;;;;;;7.13;5.53;;;;;;;;;;6219273;28;20244;-65
2021/12/18 02:56:27;;;;;;;6.27;4.70;;;;;;;;;;6235484;28;20216;-66
2021/12/18 02:59:51;;;;;;;6.30;4.50;;;;;;;;;;6237853;28;20232;-65
2021/12/18 03:03:14;;;;;;;5.47;3.90;;;;;;;;;;6214355;28;20221;-65
2021/12/18 03:06:39;;;;;;;3.93;3.53;;;;;;;;;;6243673;28;20236;-65
2021/12/18 03:24:55;;;;;;;4.87;4.20;;;;;;;;;;6247277;28;20236;-65
2021/12/18 03:28:16;;;;;;;6.93;5.20;;;;;;;;;;6223606;28;20322;-64
2021/12/18 03:31:38;;;;;;;4.17;3.73;;;;;;;;;;6241954;28;20232;-64
2021/12/18 03:34:58;;;;;;;6.10;5.20;;;;;;;;;;6238615;28;20229;-65
2021/12/18 03:38:19;;;;;;;4.97;3.90;;;;;;;;;;6243409;28;20232;-63
2021/12/18 03:41:40;;;;;;;5.53;3.83;;;;;;;;;;6244761;28;20236;-65
2021/12/18 03:45:01;;;;;;;5.83;5.13;;;;;;;;;;6252086;28;20232;-64
2021/12/18 03:48:23;;;;;;;5.23;4.23;;;;;;;;;;6222048;28;20259;-65
2021/12/18 03:51:44;;;;;;;4.70;4.20;;;;;;;;;;6241741;28;20562;-65
2021/12/18 03:55:06;;;;;;;5.43;4.27;;;;;;;;;;6245058;28;20228;-65
2021/12/18 03:58:27;;;;;;;5.80;4.73;;;;;;;;;;6244553;28;20372;-64
2021/12/18 04:01:48;;;;;;;5.57;5.03;;;;;;;;;;6241177;28;20263;-65
2021/12/18 04:05:11;;;;;;;6.57;4.47;;;;;;;;;;6240450;28;20229;-66
2021/12/18 04:08:32;;;;;;;4.53;3.57;;;;;;;;;;6233049;28;20221;-66
2021/12/18 04:11:53;;;;;;;4.47;4.07;;;;;;;;;;6242496;28;20252;-65
2021/12/18 04:15:14;;;;;;;3.97;3.37;;;;;;;;;;6244424;28;20790;-64
2021/12/18 04:18:35;;;;;;;6.20;4.37;;;;;;;;;;6241944;28;20581;-65
2021/12/18 04:21:58;;;;;;;5.57;3.27;;;;;;;;;;6239419;28;20979;-65
2021/12/18 04:25:18;;;;;;;3.47;3.17;;;;;;;;;;6241142;28;20232;-65
2021/12/18 04:28:39;;;;;;;3.67;2.87;;;;;;;;;;6240575;28;20303;-65
2021/12/18 04:32:00;;;;;;;4.53;3.10;;;;;;;;;;6230235;28;20603;-64
2021/12/18 04:35:21;;;;;;;5.03;2.70;;;;;;;;;;6225189;28;20224;-65
2021/12/18 04:38:43;;;;;;;4.10;3.40;;;;;;;;;;6236215;28;20225;-65
2021/12/18 04:42:04;;;;;;;3.20;2.90;;;;;;;;;;6241208;28;20317;-65
2021/12/18 04:45:25;;;;;;;3.47;3.17;;;;;;;;;;6240717;28;20228;-65
2021/12/18 04:48:46;;;;;;;3.63;3.33;;;;;;;;;;6241137;28;20229;-65
2021/12/18 04:52:08;;;;;;;4.87;3.70;;;;;;;;;;6235046;28;20252;-65
2021/12/18 04:55:30;;;;;;;4.57;4.17;;;;;;;;;;6240064;28;20578;-65
2021/12/18 04:58:51;;;;;;;4.47;3.97;;;;;;;;;;6243096;28;20228;-65
2021/12/18 05:02:15;;;;;;;3.97;3.57;;;;;;;;;;6237411;28;20252;-65
2021/12/18 05:05:35;;;;;;;5.70;4.73;;;;;;;;;;6239089;28;20275;-66
2021/12/18 05:08:56;;;;;;;5.30;4.80;;;;;;;;;;6236985;28;20256;-64
2021/12/18 05:12:18;;;;;;;5.60;4.43;;;;;;;;;;6238344;28;20225;-65
2021/12/18 05:15:39;;;;;;;5.00;4.17;;;;;;;;;;6239506;28;20275;-64
2021/12/18 05:19:00;;;;;;;5.00;4.50;;;;;;;;;;6241988;28;20224;-64
2021/12/18 05:22:21;;;;;;;4.57;3.97;;;;;;;;;;6238913;28;20327;-64
2021/12/18 05:25:42;;;;;;;4.47;4.07;;;;;;;;;;6240878;28;20678;-65
2021/12/18 05:29:04;;;;;;;4.67;4.13;;;;;;;;;;6240400;28;20236;-65
2021/12/18 05:32:25;;;;;;;3.27;2.87;;;;;;;;;;6239262;28;20232;-64
2021/12/18 05:35:46;;;;;;;3.30;2.60;;;;;;;;;;6241370;28;20452;-64
2021/12/18 05:39:09;;;;;;;1.87;1.70;;;;;;;;;;6233883;28;20216;-65
2021/12/18 05:42:30;;;;;;;2.07;1.87;;;;;;;;;;6211313;28;22218;-65
2021/12/18 05:45:53;;;;;;;1.37;1.20;;;;;;;;;;6240858;28;20232;-65
2021/12/18 05:49:14;;;;;;;1.83;1.73;;;;;;;;;;6240711;28;20595;-65
2021/12/18 05:52:35;;;;;;;1.50;1.40;;;;;;;;;;6232671;28;20637;-65
2021/12/18 05:55:56;;;;;;;2.20;2.00;;;;;;;;;;6238949;28;20228;-64
2021/12/18 05:59:17;;;;;;;1.10;1.10;;;;;;;;;;6239508;28;20225;-65
2021/12/18 06:02:39;;;;;;;1.27;1.10;;;;;;;;;;6238286;28;20233;-66
2021/12/18 06:06:00;;;;;;;1.10;1.00;;;;;;;;;;6237247;28;20358;-64
2021/12/18 06:09:21;;;;;;;1.80;1.70;;;;;;;;;;6239719;28;20525;-65
2021/12/18 06:12:41;;;;;;;1.40;1.30;;;;;;;;;;6235329;28;20245;-65
2021/12/18 06:16:05;;;;;;;0.67;0.67;;;;;;;;;;6237605;28;20503;-65
2021/12/18 06:19:27;;;;;;;0.97;0.90;;;;;;;;;;6240525;28;20307;-63
2021/12/18 06:22:49;;;;;;;1.20;1.10;;;;;;;;;;6238269;28;20531;-66
2021/12/18 06:26:10;;;;;;;0.93;0.70;;;;;;;;;;6238508;28;20216;-65
2021/12/18 06:29:33;;;;;;;0.80;0.80;;;;;;;;;;6237649;28;20351;-65
2021/12/18 06:32:54;;;;;;;0.80;0.80;;;;;;;;;;6238690;28;20229;-64
2021/12/18 06:36:16;;;;;;;1.27;0.90;;;;;;;;;;6238773;28;20228;-64
2021/12/18 06:39:37;;;;;;;1.10;1.10;;;;;;;;;;6232519;28;20225;-65
2021/12/18 06:42:59;;;;;;;1.40;0.83;;;;;;;;;;6235748;28;20240;-65
2021/12/18 06:46:19;;;;;;;0.80;0.77;;;;;;;;;;6237950;28;20233;-65
2021/12/18 06:49:40;;;;;;;1.43;0.80;;;;;;;;;;6236069;28;20256;-64
2021/12/18 06:53:03;;;;;;;0.97;0.93;;;;;;;;;;6236385;28;20232;-65
2021/12/18 06:56:24;;;;;;;1.17;1.07;;;;;;;;;;6228492;28;20240;-66
2021/12/18 06:59:45;;;;;;;1.50;1.17;;;;;;;;;;6238963;28;20244;-66
2021/12/18 07:03:06;;;;;;;0.97;0.97;;;;;;;;;;6224272;28;20252;-66
2021/12/18 07:06:28;;;;;;;2.43;1.73;;;;;;;;;;6227735;28;20224;-64
2021/12/18 07:09:50;;;;;;;1.80;1.60;;;;;;;;;;6232469;28;20247;-64
2021/12/18 07:13:11;;;;;;;1.50;1.40;;;;;;;;;;6228921;28;20224;-64
2021/12/18 07:16:32;;;;;;;2.93;2.17;;;;;;;;;;6238317;28;20255;-65
2021/12/18 07:19:52;;;;;;;2.43;2.23;;;;;;;;;;6235027;28;20510;-65
2021/12/18 07:23:13;;;;;;;2.83;2.60;;;;;;;;;;6236591;28;20232;-65
2021/12/18 07:26:35;;;;;;;4.13;3.70;;;;;;;;;;6235628;28;20874;-64
2021/12/18 07:29:56;;;;;;;3.43;3.13;;;;;;;;;;6237368;28;20593;-65
2021/12/18 07:33:17;;;;;;;2.73;2.53;;;;;;;;;;6234299;28;20834;-65
2021/12/18 07:36:37;;;;;;;2.07;1.97;;;;;;;;;;6231896;28;20224;-65
2021/12/18 07:39:58;;;;;;;1.87;1.77;;;;;;;;;;6225690;28;20229;-65
2021/12/18 07:43:21;;;;;;;3.23;2.33;;;;;;;;;;6226197;28;20382;-64
2021/12/18 07:46:42;;;;;;;3.43;2.20;;;;;;;;;;6231964;28;20232;-64
2021/12/18 07:50:07;;;;;;;3.77;2.80;;;;;;;;;;6229668;28;20229;-66
2021/12/18 07:53:28;;;;;;;4.57;3.73;;;;;;;;;;6227190;28;20225;-66
2021/12/18 07:56:49;;;;;;;4.33;3.57;;;;;;;;;;6223520;28;20240;-65
2021/12/18 08:00:14;;;;;;;3.43;2.93;;;;;;;;;;6216713;28;20232;-65
2021/12/18 08:03:35;;;;;;;4.27;3.50;;;;;;;;;;6225488;28;20228;-66
2021/12/18 08:06:56;;;;;;;4.30;3.33;;;;;;;;;;6239108;28;20633;-65
2021/12/18 08:10:17;;;;;;;4.87;3.10;;;;;;;;;;6230798;28;20236;-65
2021/12/18 08:13:38;;;;;;;3.10;2.80;;;;;;;;;;6225341;28;20602;-65
2021/12/18 08:17:00;;;;;;;2.33;2.13;;;;;;;;;;6225196;28;20237;-65
2021/12/18 08:20:21;;;;;;;2.63;2.43;;;;;;;;;;6233588;28;20500;-65
2021/12/18 08:23:42;;;;;;;2.60;2.17;;;;;;;;;;6213102;28;20461;-64
2021/12/18 08:27:03;;;;;;;1.73;1.63;;;;;;;;;;6233123;28;20224;-66
2021/12/18 08:30:24;;;;;;;1.73;1.63;;;;;;;;;;6237264;28;20236;-65
2021/12/18 08:33:47;;;;;;;1.90;1.80;;;;;;;;;;6233198;28;20232;-64
2021/12/18 08:37:07;;;;;;;1.90;1.60;;;;;;;;;;6231212;28;20228;-65
2021/12/18 08:40:29;;;;;;;2.33;2.13;;;;;;;;;;6238520;28;20225;-65
2021/12/18 08:43:50;;;;;;;3.07;2.33;;;;;;;;;;6237732;28;20232;-64
2021/12/18 08:47:11;;;;;;;2.37;2.03;;;;;;;;;;6237445;28;20236;-64
2021/12/18 08:50:34;;;;;;;4.77;3.37;;;;;;;;;;6238839;28;20327;-64
2021/12/18 08:53:55;;;;;;;4.97;3.80;;;;;;;;;;6238385;28;20232;-65
2021/12/18 08:57:16;;;;;;;4.70;4.30;;;;;;;;;;6238358;28;20236;-65
2021/12/18 09:00:37;;;;;;;4.50;4.07;;;;;;;;;;6226622;28;20442;-65
2021/12/18 09:03:57;;;;;;;4.50;3.80;;;;;;;;;;6232114;28;20236;-65
2021/12/18 09:07:20;;;;;;;4.97;4.33;;;;;;;;;;6234597;28;20233;-65
2021/12/18 09:10:41;;;;;;;4.40;3.87;;;;;;;;;;6236465;28;20542;-66
2021/12/18 09:14:02;;;;;;;5.67;5.17;;;;;;;;;;6233409;28;20220;-67
2021/12/18 09:17:23;;;;;;;5.03;4.53;;;;;;;;;;6232959;28;20252;-66
2021/12/18 09:20:46;;;;;;;3.77;3.37;;;;;;;;;;6230719;28;20224;-66
2021/12/18 09:24:08;;;;;;;3.03;2.77;;;;;;;;;;6246137;28;20569;-64
2021/12/18 09:27:29;;;;;;;4.63;2.57;;;;;;;;;;6239612;28;20544;-65
2021/12/18 09:30:50;;;;;;;3.73;2.33;;;;;;;;;;6237982;28;20236;-65
2021/12/18 09:34:12;;;;;;;2.20;2.10;;;;;;;;;;6235055;28;20229;-65
2021/12/18 09:37:33;;;;;;;2.30;2.10;;;;;;;;;;6237334;28;20232;-64
2021/12/18 09:40:58;;;;;;;3.20;2.57;;;;;;;;;;6233887;28;20693;-65
2021/12/18 09:44:22;;;;;;;1.30;1.20;;;;;;;;;;6232676;28;20236;-65
2021/12/18 09:47:45;;;;;;;1.10;0.90;;;;;;;;;;6231834;28;20610;-65
2021/12/18 09:51:12;;;;;;;2.67;1.80;;;;;;;;;;6232640;28;20229;-64
2021/12/18 09:54:33;;;;;;;3.20;2.00;;;;;;;;;;6243518;28;20266;-65
2021/12/18 09:57:55;;;;;;;2.30;2.10;;;;;;;;;;6233772;28;20228;-65
2021/12/18 10:01:17;;;;;;;3.10;2.60;;;;;;;;;;6236503;28;20912;-66
2021/12/18 10:04:38;;;;;;;2.37;1.97;;;;;;;;;;6230180;28;20323;-66
2021/12/18 10:08:10;;;;;;;2.80;1.93;;;;;;;;;;6219396;28;20232;-65
2021/12/18 10:11:31;;;;;;;2.20;1.90;;;;;;;;;;6230558;28;20547;-65
2021/12/18 10:14:55;;;;;;;2.73;2.47;;;;;;;;;;6226843;28;20322;-65
2021/12/18 10:18:16;;;;;;;2.77;2.57;;;;;;;;;;6234158;28;20818;-65
2021/12/18 10:21:37;;;;;;;4.70;2.00;;;;;;;;;;6228829;28;20253;-66
2021/12/18 10:25:04;;;;;;;1.73;1.60;;;;;;;;;;6232992;28;20282;-65
2021/12/18 10:28:27;;;;;;;7.20;3.03;;;;;;;;;;6227584;28;20311;-64
2021/12/18 10:31:50;;;;;;;4.47;3.50;;;;;;;;;;6234950;28;20228;-64
2021/12/18 10:35:10;;;;;;;4.97;3.43;;;;;;;;;;6236748;28;20504;-66
2021/12/18 10:38:45;;;;;;;6.07;4.20;;;;;;;;;;6232902;28;20239;-64
2021/12/18 10:42:17;;;;;;;7.90;4.63;;;;;;;;;;6232995;28;20228;-65
2021/12/18 10:45:38;;;;;;;9.27;5.30;;;;;;;;;;6234207;28;20237;-65
2021/12/18 10:49:02;;;;;;;7.87;6.30;;;;;;;;;;6210223;28;20546;-66
2021/12/18 10:52:37;;;;;;;9.77;6.73;;;;;;;;;;6235423;28;20247;-65
2021/12/18 10:55:59;;;;;;;8.50;5.67;;;;;;;;;;6234731;28;20236;-66
2021/12/18 10:59:23;;;;;;;10.20;7.20;;;;;;;;;;6230130;28;20494;-64
2021/12/18 11:02:43;;;;;;;7.37;5.90;;;;;;;;;;6228239;28;20232;-65
2021/12/18 11:06:12;;;;;;;8.63;5.90;;;;;;;;;;6222042;28;20224;-65
2021/12/18 11:09:35;;;;;;;12.57;6.37;;;;;;;;;;6225498;28;21364;-65
2021/12/18 11:16:36;;;;;;;7.90;5.50;;;;;;;;;;6223928;28;20769;-66
2021/12/18 11:19:57;;;;;;;11.93;6.30;;;;;;;;;;6229617;28;20862;-66
2021/12/18 11:23:26;;;;;;;10.93;4.80;;;;;;;;;;6214041;28;20236;-65
2021/12/18 11:26:52;;;;;;;11.63;5.50;;;;;;;;;;6229955;28;20232;-65
2021/12/18 11:30:15;;;;;;;10.03;5.63;;;;;;;;;;6232097;28;20240;-64
2021/12/18 11:33:35;;;;;;;12.17;6.10;;;;;;;;;;6230424;28;20232;-65
2021/12/18 11:36:57;;;;;;;13.97;5.80;;;;;;;;;;6223001;28;20224;-65
2021/12/18 11:40:22;;;;;;;9.80;5.13;;;;;;;;;;6220075;28;20233;-65
2021/12/18 11:43:46;;;;;;;13.40;4.77;;;;;;;;;;6217774;28;20240;-66
2021/12/18 11:47:30;;;;;;;11.37;4.83;;;;;;;;;;6222156;28;20559;-66
2021/12/18 11:50:51;;;;;;;11.50;6.63;;;;;;;;;;6212232;28;20236;-65
2021/12/18 11:54:44;;;;;;;10.37;6.77;;;;;;;;;;6218003;28;20742;-66
2021/12/18 11:58:13;;;;;;;13.00;6.17;;;;;;;;;;6213664;28;20232;-65
2021/12/18 12:01:43;;;;;;;13.37;6.63;;;;;;;;;;6207441;28;20236;-65
2021/12/18 12:05:06;;;;;;;10.90;5.50;;;;;;;;;;6207559;28;20232;-65
2021/12/18 12:08:38;;;;;;;9.67;6.00;;;;;;;;;;6214867;28;20637;-64
2021/12/18 12:12:01;;;;;;;11.80;5.30;;;;;;;;;;6212417;28;20358;-65
2021/12/18 12:15:26;;;;;;;17.50;5.97;;;;;;;;;;6220407;28;20759;-65
2021/12/18 12:19:06;;;;;;;16.57;5.87;;;;;;;;;;6221578;28;20233;-64
2021/12/18 12:22:52;;;;;;;10.97;5.20;;;;;;;;;;6221450;28;20236;-65
2021/12/18 12:26:23;;;;;;;14.07;5.63;;;;;;;;;;6221449;28;20319;-65
2021/12/18 12:29:46;;;;;;;15.70;5.97;;;;;;;;;;6221265;28;20228;-65
2021/12/18 12:33:10;;;;;;;10.23;4.43;;;;;;;;;;6222387;28;20311;-64
2021/12/18 12:36:31;;;;;;;7.80;4.37;;;;;;;;;;6224703;28;20343;-65
2021/12/18 12:39:53;;;;;;;16.97;6.87;;;;;;;;;;6225323;28;20605;-64
2021/12/18 12:43:17;;;;;;;19.60;7.30;;;;;;;;;;6223286;28;20216;-64
2021/12/18 12:46:38;;;;;;;12.20;5.20;;;;;;;;;;6223129;28;20402;-65
2021/12/18 12:50:04;;;;;;;16.23;6.10;;;;;;;;;;6221626;28;20233;-65
2021/12/18 12:53:48;;;;;;;11.10;5.90;;;;;;;;;;6221840;28;21133;-63
2021/12/18 12:57:43;;;;;;;12.67;5.17;;;;;;;;;;6223567;28;20273;-65
2021/12/18 13:01:05;;;;;;;13.50;5.33;;;;;;;;;;6192358;28;20223;-65
2021/12/18 13:04:25;;;;;;;13.27;4.43;;;;;;;;;;6220851;28;20228;-65
2021/12/18 13:07:49;;;;;;;12.93;5.13;;;;;;;;;;6218539;28;20232;-65
2021/12/18 13:11:16;;;;;;;8.40;5.13;;;;;;;;;;6219671;28;23400;-65
2021/12/18 13:14:38;;;;;;;13.90;5.47;;;;;;;;;;6219507;28;20220;-65
2021/12/18 13:18:05;;;;;;;7.10;4.07;;;;;;;;;;6222331;28;20240;-64
2021/12/18 13:21:28;;;;;;;24.57;7.33;;;;;;;;;;6222491;28;20240;-66
2021/12/18 13:25:03;;;;;;;16.60;5.77;;;;;;;;;;6221591;28;20233;-66
2021/12/18 13:28:24;;;;;;;12.47;5.20;;;;;;;;;;6220943;28;20228;-65
2021/12/18 13:31:49;;;;;;;15.60;5.60;;;;;;;;;;6219183;28;20229;-64
2021/12/18 13:35:14;;;;;;;14.43;5.27;;;;;;;;;;6223813;28;22305;-65
2021/12/18 13:38:36;;;;;;;12.97;5.13;;;;;;;;;;6221672;28;20583;-65
2021/12/18 13:42:09;;;;;;;15.67;5.53;;;;;;;;;;6218315;28;20258;-64
2021/12/18 13:45:30;;;;;;;16.43;5.00;;;;;;;;;;6211160;28;20236;-64
2021/12/18 13:48:51;;;;;;;17.10;5.03;;;;;;;;;;6230795;28;20247;-64
2021/12/18 13:52:12;;;;;;;12.10;5.37;;;;;;;;;;6213433;28;20261;-66
2021/12/18 13:55:34;;;;;;;12.83;4.87;;;;;;;;;;6227503;28;20354;-65
2021/12/18 13:58:57;;;;;;;13.37;4.53;;;;;;;;;;6229669;28;20280;-66
2021/12/18 14:02:21;;;;;;;13.30;4.43;;;;;;;;;;6230131;28;20229;-67
2021/12/18 14:05:42;;;;;;;14.40;6.20;;;;;;;;;;6217656;28;20240;-65
2021/12/18 14:09:06;;;;;;;18.33;5.20;;;;;;;;;;6232080;28;20228;-66
2021/12/18 14:12:27;;;;;;;8.53;4.70;;;;;;;;;;6230481;28;20329;-65
2021/12/18 14:15:49;;;;;;;15.43;5.80;;;;;;;;;;6227061;28;20670;-64
2021/12/18 14:19:11;;;;;;;13.57;4.30;;;;;;;;;;6226617;28;20228;-64
2021/12/18 14:22:31;;;;;;;13.20;5.07;;;;;;;;;;6220730;28;20942;-66
2021/12/18 14:26:14;;;;;;;17.90;4.87;;;;;;;;;;6232423;28;20327;-64
2021/12/18 14:29:38;;;;;;;12.17;4.67;;;;;;;;;;6205551;28;20323;-64
2021/12/18 14:33:07;;;;;;;12.00;3.70;;;;;;;;;;6233527;28;20564;-65
2021/12/18 14:36:56;;;;;;;13.13;4.87;;;;;;;;;;6232883;28;21631;-64
2021/12/18 14:40:18;;;;;;;12.27;4.50;;;;;;;;;;6235514;28;20225;-64
2021/12/18 14:43:39;;;;;;;14.07;4.53;;;;;;;;;;6222038;28;20228;-64
2021/12/18 14:47:09;;;;;;;12.67;4.30;;;;;;;;;;6230520;28;20602;-65
2021/12/18 14:50:32;;;;;;;9.70;3.73;;;;;;;;;;6231713;28;20311;-65
2021/12/18 14:53:58;;;;;;;15.43;4.03;;;;;;;;;;6228625;28;20232;-64
2021/12/18 14:57:23;;;;;;;14.57;4.53;;;;;;;;;;6230886;28;20315;-65
2021/12/18 15:00:54;;;;;;;13.97;5.37;;;;;;;;;;6230417;28;20244;-63
2021/12/18 15:04:19;;;;;;;12.87;6.27;;;;;;;;;;6227565;28;20232;-65
2021/12/18 15:07:41;;;;;;;12.47;5.00;;;;;;;;;;6229009;28;20754;-66
2021/12/18 15:11:08;;;;;;;11.37;4.97;;;;;;;;;;6214439;28;20352;-65
2021/12/18 15:14:33;;;;;;;16.17;5.87;;;;;;;;;;6228889;28;20237;-65
2021/12/18 15:17:54;;;;;;;15.37;5.37;;;;;;;;;;6230749;28;20256;-65
2021/12/18 15:21:16;;;;;;;11.80;4.63;;;;;;;;;;6225831;28;20228;-65
2021/12/18 15:24:39;;;;;;;11.80;4.77;;;;;;;;;;6226294;28;20220;-66
2021/12/18 15:27:59;;;;;;;12.33;4.73;;;;;;;;;;6231224;28;20240;-65
2021/12/18 15:31:20;;;;;;;13.57;5.67;;;;;;;;;;6232612;28;20224;-65
2021/12/18 15:34:42;;;;;;;11.20;5.13;;;;;;;;;;6229685;28;20248;-66
2021/12/18 15:38:03;;;;;;;25.33;6.97;;;;;;;;;;6228595;28;20259;-64
2021/12/18 15:41:26;;;;;;;19.40;6.10;;;;;;;;;;6227169;28;20602;-65
2021/12/18 15:44:47;;;;;;;14.03;6.07;;;;;;;;;;6234224;28;20228;-65
2021/12/18 15:48:08;;;;;;;13.20;5.43;;;;;;;;;;6231684;28;20232;-66
2021/12/18 15:51:29;;;;;;;16.50;6.10;;;;;;;;;;6211798;28;20232;-67
2021/12/18 15:54:50;;;;;;;13.80;5.73;;;;;;;;;;6233609;28;20514;-65
2021/12/18 15:58:12;;;;;;;19.73;6.67;;;;;;;;;;6211493;28;20233;-65
2021/12/18 16:01:33;;;;;;;13.73;5.13;;;;;;;;;;6205230;28;20240;-66
2021/12/18 16:04:54;;;;;;;14.93;5.90;;;;;;;;;;6222672;28;20236;-65
2021/12/18 16:08:15;;;;;;;17.10;6.43;;;;;;;;;;6221632;28;20233;-65
2021/12/18 16:11:36;;;;;;;12.80;4.87;;;;;;;;;;6227604;28;20228;-65
2021/12/18 16:14:58;;;;;;;12.70;5.70;;;;;;;;;;6231062;28;20607;-65
2021/12/18 16:18:19;;;;;;;14.10;6.27;;;;;;;;;;6233265;28;20225;-65
2021/12/18 16:21:39;;;;;;;13.13;6.23;;;;;;;;;;6225429;28;20232;-67
2021/12/18 16:25:00;;;;;;;15.57;6.20;;;;;;;;;;6227682;28;20243;-64
2021/12/18 16:28:21;;;;;;;14.33;6.27;;;;;;;;;;6231030;28;20236;-66
2021/12/18 16:31:43;;;;;;;14.57;5.23;;;;;;;;;;6228817;28;20233;-64
2021/12/18 16:35:05;;;;;;;16.00;6.60;;;;;;;;;;6236318;28;20220;-65
2021/12/18 16:38:33;;;;;;;13.47;5.83;;;;;;;;;;6234480;28;20252;-65
2021/12/18 16:41:54;;;;;;;12.00;5.93;;;;;;;;;;6238233;28;20244;-65
2021/12/18 16:45:15;;;;;;;14.47;5.47;;;;;;;;;;6247661;28;20221;-65
2021/12/18 16:48:38;;;;;;;12.70;5.03;;;;;;;;;;6227504;28;20251;-63
2021/12/18 16:51:59;;;;;;;12.43;5.40;;;;;;;;;;6233494;28;20221;-66
2021/12/18 16:55:20;;;;;;;17.30;5.53;;;;;;;;;;6235117;28;20500;-66
2021/12/18 16:58:41;;;;;;;13.80;6.10;;;;;;;;;;6204011;28;20233;-66
2021/12/18 17:02:02;;;;;;;12.67;5.63;;;;;;;;;;6227712;28;20622;-65
2021/12/18 17:05:25;;;;;;;16.40;5.70;;;;;;;;;;6230810;28;20236;-64
2021/12/18 17:08:45;;;;;;;16.30;6.23;;;;;;;;;;6230791;28;20228;-65
2021/12/18 17:12:08;;;;;;;14.43;6.90;;;;;;;;;;6229878;28;20232;-65
2021/12/18 17:15:29;;;;;;;23.17;8.67;;;;;;;;;;6234743;28;20279;-66
2021/12/18 17:18:50;;;;;;;22.63;8.37;;;;;;;;;;6229595;28;20617;-65
2021/12/18 17:22:12;;;;;;;15.00;7.40;;;;;;;;;;6223988;28;20221;-66
2021/12/18 17:25:33;;;;;;;12.13;6.93;;;;;;;;;;6221640;28;20252;-65
2021/12/18 17:28:54;;;;;;;15.07;7.27;;;;;;;;;;6226777;28;20241;-66
2021/12/18 17:32:15;;;;;;;17.30;7.53;;;;;;;;;;6219270;28;20681;-65
2021/12/18 17:35:38;;;;;;;23.37;8.00;;;;;;;;;;6227782;28;21402;-66
2021/12/18 17:39:01;;;;;;;13.60;8.07;;;;;;;;;;6233397;28;20236;-65
2021/12/18 17:42:22;;;;;;;15.43;7.77;;;;;;;;;;6230101;28;20515;-64
2021/12/18 17:45:43;;;;;;;15.23;9.00;;;;;;;;;;6232289;28;20251;-65
2021/12/18 17:49:06;;;;;;;19.60;9.60;;;;;;;;;;6223772;28;20328;-66
2021/12/18 17:52:26;;;;;;;14.07;8.27;;;;;;;;;;6230229;28;20308;-66
2021/12/18 17:55:49;;;;;;;12.70;7.43;;;;;;;;;;6227357;28;20232;-66
2021/12/18 17:59:10;;;;;;;14.80;7.60;;;;;;;;;;6223013;28;20232;-66
2021/12/18 18:02:31;;;;;;;16.33;7.97;;;;;;;;;;6235527;28;20246;-66
2021/12/18 18:05:52;;;;;;;17.27;8.00;;;;;;;;;;6234185;28;20621;-67
2021/12/18 18:09:16;;;;;;;20.73;8.50;;;;;;;;;;6232497;28;20221;-66
2021/12/18 18:12:38;;;;;;;17.60;7.63;;;;;;;;;;6231042;28;20235;-67
2021/12/18 18:15:59;;;;;;;19.77;8.27;;;;;;;;;;6230820;28;20232;-65
2021/12/18 18:19:20;;;;;;;15.03;6.77;;;;;;;;;;6234284;28;20335;-65
2021/12/18 18:22:41;;;;;;;20.17;9.67;;;;;;;;;;6234380;28;20232;-66
2021/12/18 18:26:02;;;;;;;12.00;6.30;;;;;;;;;;6232134;28;20240;-66
2021/12/18 18:29:24;;;;;;;10.50;5.40;;;;;;;;;;6229139;28;20541;-66
2021/12/18 18:32:46;;;;;;;11.30;6.60;;;;;;;;;;6205460;28;20229;-66
2021/12/18 18:36:08;;;;;;;14.07;7.03;;;;;;;;;;6209601;28;20658;-66
2021/12/18 18:39:29;;;;;;;14.50;6.97;;;;;;;;;;6223900;28;20611;-66
2021/12/18 18:42:52;;;;;;;12.67;5.60;;;;;;;;;;6229196;28;20229;-67
2021/12/18 18:46:21;;;;;;;14.87;8.60;;;;;;;;;;6222464;28;20237;-66
2021/12/18 18:49:42;;;;;;;12.97;7.63;;;;;;;;;;6221225;28;20566;-66
2021/12/18 18:53:03;;;;;;;11.67;6.37;;;;;;;;;;6226068;28;20509;-66
2021/12/18 18:56:24;;;;;;;15.23;7.63;;;;;;;;;;6228662;28;20443;-66
2021/12/18 18:59:46;;;;;;;14.13;6.93;;;;;;;;;;6232172;28;20257;-66
2021/12/18 19:03:08;;;;;;;13.93;5.50;;;;;;;;;;6235379;28;20213;-66
2021/12/18 19:06:29;;;;;;;11.17;6.57;;;;;;;;;;6225580;28;20228;-67
2021/12/18 19:09:50;;;;;;;11.43;6.37;;;;;;;;;;6241317;28;20322;-67
2021/12/18 19:13:11;;;;;;;13.00;6.37;;;;;;;;;;6233262;28;20244;-66
2021/12/18 19:16:36;;;;;;;18.23;6.83;;;;;;;;;;6228512;28;20231;-66
2021/12/18 19:20:06;;;;;;;10.20;5.73;;;;;;;;;;6233517;28;20249;-66
2021/12/18 19:23:32;;;;;;;14.07;8.33;;;;;;;;;;6231984;28;20236;-67
2021/12/18 19:26:53;;;;;;;11.13;4.70;;;;;;;;;;6226854;28;20228;-65
2021/12/18 19:30:16;;;;;;;11.57;4.87;;;;;;;;;;6233773;28;20224;-66
2021/12/18 19:33:37;;;;;;;12.40;5.07;;;;;;;;;;6214611;28;20843;-66
2021/12/18 19:37:00;;;;;;;11.77;5.37;;;;;;;;;;6229442;28;20232;-66
2021/12/18 19:40:21;;;;;;;8.90;4.60;;;;;;;;;;6231125;28;20232;-66
2021/12/18 19:43:42;;;;;;;11.50;5.60;;;;;;;;;;6228204;28;20261;-65
2021/12/18 19:47:03;;;;;;;10.33;6.00;;;;;;;;;;6223941;28;20236;-68
2021/12/18 19:50:25;;;;;;;10.20;5.23;;;;;;;;;;6232534;28;20240;-68
2021/12/18 19:53:48;;;;;;;13.40;6.27;;;;;;;;;;6227297;28;20232;-65
2021/12/18 19:57:09;;;;;;;11.67;5.53;;;;;;;;;;6239354;28;20232;-65
2021/12/18 20:00:34;;;;;;;7.03;4.70;;;;;;;;;;6234158;28;20726;-66
2021/12/18 20:07:34;;;;;;;5.77;4.10;;;;;;;;;;6237235;28;20240;-66
2021/12/18 20:10:56;;;;;;;5.97;3.23;;;;;;;;;;6238325;28;20235;-66
2021/12/18 20:14:18;;;;;;;6.00;3.50;;;;;;;;;;6236042;28;20229;-67
2021/12/18 20:17:39;;;;;;;8.10;4.90;;;;;;;;;;6231294;28;20610;-64
2021/12/18 20:21:02;;;;;;;9.50;3.67;;;;;;;;;;6235727;28;20240;-66
2021/12/18 20:24:23;;;;;;;7.97;4.63;;;;;;;;;;6243151;28;20240;-65
2021/12/18 20:27:45;;;;;;;8.80;4.13;;;;;;;;;;6239393;28;20252;-66
2021/12/18 20:31:07;;;;;;;7.13;3.83;;;;;;;;;;6236379;28;20233;-66
2021/12/18 20:34:28;;;;;;;8.37;3.90;;;;;;;;;;6237200;28;20236;-64
2021/12/18 20:37:51;;;;;;;8.70;5.27;;;;;;;;;;6233958;28;20260;-65
2021/12/18 20:41:12;;;;;;;8.30;4.93;;;;;;;;;;6237249;28;20224;-65
2021/12/18 20:44:34;;;;;;;9.27;4.77;;;;;;;;;;6238806;28;20263;-65
2021/12/18 20:47:55;;;;;;;10.27;4.47;;;;;;;;;;6234484;28;20330;-67
2021/12/18 20:51:16;;;;;;;7.30;3.70;;;;;;;;;;6234726;28;20515;-66